Time;durP1;ratioP1;P1;durP2;ratioP2;P2;SDS_P1;SDS_P2;PMS_P1;PMS_P2;Temp;Humidity;BMP_temperature;BMP_pressure;BME280_temperature;BME280_humidity;BME280_pressure;Samples;Min_cycle;Max_cycle;Signal;HPM_P1;HPM_P2
2023/05/04 00:00:15;;;;;;;7.13;0.60;;;;;;;10.04;73.76;101945.53;4900372;29;20865;-59
2023/05/04 00:02:41;;;;;;;0.30;0.30;;;;;;;10.11;73.48;101945.06;4900566;29;20046;-55
2023/05/04 00:05:07;;;;;;;0.57;0.57;;;;;;;9.94;73.99;101946.66;4906854;29;20036;-59
2023/05/04 00:07:33;;;;;;;0.40;0.40;;;;;;;9.96;73.90;101940.97;4886531;29;20068;-56
2023/05/04 00:09:59;;;;;;;1.52;0.82;;;;;;;10.00;73.79;101944.59;4909856;29;20047;-58
2023/05/04 00:12:24;;;;;;;0.52;0.52;;;;;;;10.03;73.36;101946.63;4905290;29;20088;-58
2023/05/04 00:14:50;;;;;;;3.17;0.93;;;;;;;9.82;74.09;101948.41;4928096;28;20050;-56
2023/05/04 00:17:15;;;;;;;0.45;0.45;;;;;;;9.88;73.82;101936.38;4990378;28;20026;-59
2023/05/04 00:19:42;;;;;;;1.25;1.10;;;;;;;9.83;74.24;101953.44;4973899;28;20092;-53
2023/05/04 00:22:08;;;;;;;0.65;0.50;;;;;;;9.80;74.21;101951.41;4990792;28;20096;-53
2023/05/04 00:24:34;;;;;;;2.00;1.23;;;;;;;9.94;74.08;101943.97;4987183;28;20022;-56
2023/05/04 00:26:59;;;;;;;0.82;0.60;;;;;;;10.01;73.74;101940.78;4990103;28;20034;-50
2023/05/04 00:29:24;;;;;;;0.43;0.43;;;;;;;9.82;73.66;101938.44;4991292;28;20045;-55
2023/05/04 00:31:52;;;;;;;1.00;0.40;;;;;;;9.91;73.53;101946.50;4990411;28;20042;-56
2023/05/04 00:34:18;;;;;;;1.75;0.40;;;;;;;9.95;73.62;101947.44;4970485;28;20038;-55
2023/05/04 00:36:45;;;;;;;0.95;0.80;;;;;;;9.83;73.83;101945.38;4968444;28;20080;-57
2023/05/04 00:39:12;;;;;;;1.00;0.95;;;;;;;9.98;73.85;101938.75;4975582;28;20027;-58
2023/05/04 00:41:37;;;;;;;0.50;0.50;;;;;;;9.86;73.71;101941.28;4990067;28;20030;-55
2023/05/04 00:44:04;;;;;;;1.42;0.80;;;;;;;9.78;73.81;101939.38;4957167;28;20027;-54
2023/05/04 00:46:31;;;;;;;0.57;0.57;;;;;;;9.59;74.60;101930.84;4985111;28;20050;-56
2023/05/04 00:48:58;;;;;;;1.00;0.85;;;;;;;9.49;75.13;101933.84;4988645;28;20113;-58
2023/05/04 00:51:25;;;;;;;2.95;1.73;;;;;;;9.51;75.36;101927.03;4989805;28;20034;-50
2023/05/04 00:53:56;;;;;;;2.15;1.08;;;;;;;9.33;75.34;101921.97;4984982;28;20088;-54
2023/05/04 00:56:23;;;;;;;0.85;0.75;;;;;;;9.28;76.25;101928.28;4973200;23;20065;-66
2023/05/04 00:58:53;;;;;;;1.83;1.27;;;;;;;9.29;76.42;101918.34;4960842;28;20033;-60
2023/05/04 01:01:20;;;;;;;2.00;0.57;;;;;;;9.34;76.40;101920.84;4985378;28;20129;-65
2023/05/04 01:03:51;;;;;;;0.50;0.50;;;;;;;9.31;75.95;101918.81;4980210;28;20505;-65
2023/05/04 01:06:28;;;;;;;0.55;0.55;;;;;;;9.30;76.24;101912.63;4992985;28;20123;-64
2023/05/04 01:09:00;;;;;;;2.85;1.23;;;;;;;9.30;76.37;101909.94;4998620;28;20089;-65
2023/05/04 01:11:32;;;;;;;0.60;0.45;;;;;;;9.23;76.15;101914.22;4979405;28;20029;-65
2023/05/04 01:14:00;;;;;;;0.43;0.43;;;;;;;9.21;76.58;101916.41;4986123;28;20038;-65
2023/05/04 01:16:28;;;;;;;0.60;0.50;;;;;;;9.32;75.77;101912.31;4997931;28;20064;-64
2023/05/04 01:18:54;;;;;;;0.50;0.50;;;;;;;9.13;76.34;101918.00;4986112;28;20033;-64
2023/05/04 01:21:20;;;;;;;0.70;0.57;;;;;;;9.17;76.16;101912.78;4988812;28;20045;-61
2023/05/04 01:23:45;;;;;;;3.50;1.05;;;;;;;9.12;76.52;101918.31;4981231;28;20053;-66
2023/05/04 01:26:51;;;;;;;9.48;0.88;;;;;;;8.99;76.76;101912.75;5005453;28;20022;-65
2023/05/04 01:29:19;;;;;;;5.65;0.77;;;;;;;9.10;75.97;101911.34;4914171;29;20407;-64
2023/05/04 01:31:45;;;;;;;0.63;0.45;;;;;;;9.17;76.35;101908.19;4929139;29;20044;-65
2023/05/04 01:34:12;;;;;;;1.05;0.63;;;;;;;9.15;76.34;101904.22;4932399;28;20130;-65
2023/05/04 01:36:39;;;;;;;1.50;0.93;;;;;;;9.07;76.26;101911.97;4920406;29;21746;-62
2023/05/04 01:39:05;;;;;;;0.80;0.80;;;;;;;8.96;77.01;101901.84;4909256;29;20054;-63
2023/05/04 01:41:32;;;;;;;2.47;1.15;;;;;;;8.81;77.18;101899.56;4937336;29;20127;-64
2023/05/04 01:43:57;;;;;;;0.93;0.60;;;;;;;8.83;77.69;101905.41;4920365;29;20187;-65
2023/05/04 01:46:25;;;;;;;0.75;0.75;;;;;;;8.91;76.99;101913.50;4928128;29;20051;-64
2023/05/04 01:48:53;;;;;;;0.38;0.38;;;;;;;8.78;76.95;101903.69;4915565;29;20031;-65
2023/05/04 01:51:21;;;;;;;0.85;0.70;;;;;;;8.59;77.25;101899.66;4914686;29;20086;-63
2023/05/04 01:53:46;;;;;;;1.02;0.70;;;;;;;8.60;77.63;101903.91;4932020;29;20130;-65
2023/05/04 01:56:13;;;;;;;0.57;0.55;;;;;;;8.55;77.93;101894.13;4927701;29;20039;-65
2023/05/04 01:58:38;;;;;;;4.63;0.52;;;;;;;8.50;77.70;101896.13;4927011;29;20035;-62
2023/05/04 02:01:04;;;;;;;1.00;0.70;;;;;;;8.37;77.99;101897.81;4927087;29;20042;-65
2023/05/04 02:03:30;;;;;;;1.30;0.80;;;;;;;8.31;78.86;101893.69;4930257;29;20047;-65
2023/05/04 02:05:58;;;;;;;0.40;0.40;;;;;;;8.31;78.11;101895.56;4953494;28;20037;-64
2023/05/04 02:08:24;;;;;;;0.55;0.55;;;;;;;8.27;78.98;101887.34;4971743;28;20057;-65
2023/05/04 02:10:50;;;;;;;2.45;0.70;;;;;;;8.19;79.05;101874.66;4992705;28;20088;-64
2023/05/04 02:13:16;;;;;;;1.48;1.38;;;;;;;8.23;79.48;101880.97;5000758;28;20050;-64
2023/05/04 02:15:41;;;;;;;1.50;1.05;;;;;;;8.25;79.25;101878.00;4995369;28;20045;-65
2023/05/04 02:18:07;;;;;;;1.67;0.88;;;;;;;8.09;79.78;101877.63;4982523;28;20054;-65
2023/05/04 02:20:32;;;;;;;0.90;0.65;;;;;;;8.28;79.47;101878.22;4992618;28;20152;-65
2023/05/04 02:22:58;;;;;;;2.10;1.25;;;;;;;8.31;79.58;101884.84;4989121;28;20030;-62
2023/05/04 02:25:24;;;;;;;0.30;0.30;;;;;;;8.43;78.76;101877.81;4987605;28;20543;-65
2023/05/04 02:27:50;;;;;;;1.48;0.52;;;;;;;8.43;78.64;101885.06;4992453;28;20038;-61
2023/05/04 02:30:15;;;;;;;0.30;0.30;;;;;;;8.35;78.66;101877.75;4991675;28;20080;-62
2023/05/04 02:32:41;;;;;;;0.77;0.63;;;;;;;8.30;78.93;101878.69;5009965;28;20034;-63
2023/05/04 02:35:07;;;;;;;0.43;0.43;;;;;;;8.28;78.91;101880.91;5008680;28;20040;-61
2023/05/04 02:37:33;;;;;;;1.08;0.55;;;;;;;8.23;78.94;101880.97;4987954;28;20053;-61
2023/05/04 02:39:58;;;;;;;0.35;0.35;;;;;;;8.16;79.38;101875.28;4992225;28;20456;-63
2023/05/04 02:42:23;;;;;;;0.75;0.70;;;;;;;8.01;79.35;101875.66;4992370;28;20744;-63
2023/05/04 02:44:49;;;;;;;0.90;0.82;;;;;;;8.09;79.71;101869.56;4988591;28;20703;-60
2023/05/04 02:47:14;;;;;;;0.75;0.75;;;;;;;7.92;80.45;101880.16;4987299;28;20034;-59
2023/05/04 02:49:40;;;;;;;0.38;0.30;;;;;;;7.99;79.85;101864.47;5000654;28;20030;-63
2023/05/04 02:52:05;;;;;;;0.85;0.65;;;;;;;8.04;79.71;101873.16;4998868;28;20033;-62
2023/05/04 02:54:31;;;;;;;1.13;0.70;;;;;;;8.00;79.90;101869.50;4964116;28;20044;-63
2023/05/04 02:56:56;;;;;;;0.60;0.60;;;;;;;8.03;80.16;101870.78;4985153;28;20029;-65
2023/05/04 02:59:22;;;;;;;0.60;0.60;;;;;;;8.04;79.61;101867.00;5007699;28;20476;-65
2023/05/04 03:01:47;;;;;;;0.45;0.45;;;;;;;7.78;80.58;101869.50;4990924;28;20037;-63
2023/05/04 03:04:13;;;;;;;1.10;1.00;;;;;;;7.75;80.90;101861.28;4991822;28;20025;-65
2023/05/04 03:06:38;;;;;;;0.30;0.30;;;;;;;7.90;80.04;101866.28;5010197;28;20071;-65
2023/05/04 03:09:04;;;;;;;0.77;0.70;;;;;;;7.87;79.27;101862.34;4982754;28;20435;-65
2023/05/04 03:11:29;;;;;;;1.10;0.77;;;;;;;7.74;80.43;101865.84;5007434;28;20046;-61
2023/05/04 03:13:55;;;;;;;0.55;0.55;;;;;;;7.76;80.88;101866.34;4999711;28;20034;-65
2023/05/04 03:16:41;;;;;;;0.55;0.55;;;;;;;7.87;79.46;101861.53;4978384;28;20037;-65
2023/05/04 03:19:06;;;;;;;0.40;0.40;;;;;;;7.82;80.44;101859.00;4936048;29;20192;-64
2023/05/04 03:21:32;;;;;;;0.57;0.57;;;;;;;7.81;79.89;101854.72;4941977;28;20631;-65
2023/05/04 03:23:58;;;;;;;0.63;0.63;;;;;;;7.86;79.62;101852.69;4932050;29;20040;-64
2023/05/04 03:26:26;;;;;;;0.47;0.47;;;;;;;7.97;79.38;101848.69;4918033;29;20548;-65
2023/05/04 03:28:51;;;;;;;0.85;0.70;;;;;;;7.87;79.38;101850.81;4932914;29;20035;-66
2023/05/04 03:31:17;;;;;;;10.05;0.77;;;;;;;7.92;79.50;101853.34;4946729;28;20608;-64
2023/05/04 03:33:46;;;;;;;0.40;0.40;;;;;;;7.99;78.57;101851.06;4947548;29;20407;-65
2023/05/04 03:36:11;;;;;;;1.85;0.55;;;;;;;7.92;79.04;101848.00;4945763;29;20039;-64
2023/05/04 03:38:41;;;;;;;1.90;0.55;;;;;;;7.84;79.60;101851.44;4941721;28;20061;-66
2023/05/04 03:41:06;;;;;;;0.73;0.50;;;;;;;7.90;79.12;101853.66;4950539;29;20027;-65
2023/05/04 03:43:32;;;;;;;0.85;0.80;;;;;;;7.83;78.92;101839.91;4931339;28;20191;-64
2023/05/04 03:45:58;;;;;;;0.75;0.65;;;;;;;7.53;79.75;101839.88;4950149;29;20364;-65
2023/05/04 03:48:23;;;;;;;0.95;0.50;;;;;;;7.47;81.16;101838.41;4948133;29;20092;-65
2023/05/04 03:50:50;;;;;;;3.45;0.73;;;;;;;7.54;81.14;101842.25;4931864;29;20444;-64
2023/05/04 03:53:15;;;;;;;1.08;0.75;;;;;;;7.44;81.10;101837.13;4944502;28;20028;-62
2023/05/04 03:55:42;;;;;;;1.40;0.65;;;;;;;7.47;80.87;101841.09;4945920;28;20157;-65
2023/05/04 03:58:07;;;;;;;0.70;0.70;;;;;;;7.63;80.67;101843.09;5005372;28;20116;-63
2023/05/04 04:00:33;;;;;;;3.78;0.60;;;;;;;7.69;80.43;101849.09;4975816;28;20026;-64
2023/05/04 04:03:07;;;;;;;0.73;0.70;;;;;;;7.53;80.88;101846.00;5005798;28;20105;-64
2023/05/04 04:05:33;;;;;;;0.40;0.40;;;;;;;7.51;80.92;101847.44;4991717;28;20424;-62
2023/05/04 04:07:59;;;;;;;1.25;0.82;;;;;;;7.52;80.30;101855.16;4987774;28;20100;-65
2023/05/04 04:10:25;;;;;;;0.60;0.60;;;;;;;7.55;81.24;101846.50;5002336;28;20022;-65
2023/05/04 04:12:51;;;;;;;2.05;0.60;;;;;;;7.55;81.21;101853.75;4997336;28;20036;-65
2023/05/04 04:15:16;;;;;;;3.45;1.98;;;;;;;7.48;81.44;101848.81;5001843;28;20097;-62
2023/05/04 04:17:42;;;;;;;0.88;0.88;;;;;;;7.60;81.53;101850.94;5001389;28;20243;-63
2023/05/04 04:20:08;;;;;;;0.73;0.73;;;;;;;7.76;81.51;101847.59;4990881;28;20111;-65
2023/05/04 04:22:35;;;;;;;1.83;1.02;;;;;;;7.87;80.57;101850.81;5003272;28;20079;-64
2023/05/04 04:25:00;;;;;;;0.82;0.50;;;;;;;7.93;80.27;101857.63;5005919;28;20437;-62
2023/05/04 04:27:26;;;;;;;0.82;0.82;;;;;;;8.00;80.35;101856.09;5004573;28;20050;-65
2023/05/04 04:29:51;;;;;;;1.08;0.85;;;;;;;8.07;80.12;101850.31;5004090;28;20052;-63
2023/05/04 04:32:17;;;;;;;0.65;0.47;;;;;;;8.14;80.31;101850.66;5006640;28;20026;-62
2023/05/04 04:34:43;;;;;;;1.20;0.98;;;;;;;8.13;80.27;101857.91;5004729;28;20591;-65
2023/05/04 04:37:08;;;;;;;0.40;0.40;;;;;;;8.16;80.66;101859.19;4987299;28;20037;-65
2023/05/04 04:39:33;;;;;;;1.85;0.43;;;;;;;8.33;79.96;101864.66;4999618;28;20457;-65
2023/05/04 04:42:00;;;;;;;0.57;0.43;;;;;;;8.47;79.89;101867.22;4984212;28;20124;-62
2023/05/04 04:44:25;;;;;;;1.00;0.70;;;;;;;8.56;79.73;101860.78;5002932;28;20025;-63
2023/05/04 04:46:51;;;;;;;0.70;0.70;;;;;;;8.65;79.78;101860.84;5005482;28;20451;-61
2023/05/04 04:49:17;;;;;;;1.88;0.77;;;;;;;8.70;79.67;101868.72;4998763;28;20033;-65
2023/05/04 04:51:43;;;;;;;0.82;0.82;;;;;;;8.79;79.48;101867.66;5001777;28;20121;-62
2023/05/04 04:54:08;;;;;;;0.90;0.80;;;;;;;9.03;78.25;101873.41;5003090;28;20022;-64
2023/05/04 04:56:35;;;;;;;4.82;0.63;;;;;;;8.85;77.47;101874.47;4983758;28;20080;-64
2023/05/04 04:59:00;;;;;;;0.77;0.50;;;;;;;8.92;77.72;101869.41;4967469;28;20040;-64
2023/05/04 05:01:26;;;;;;;0.40;0.40;;;;;;;9.02;76.76;101874.50;4991785;28;20018;-61
2023/05/04 05:03:51;;;;;;;0.73;0.68;;;;;;;8.99;76.23;101869.75;4998998;28;20504;-62
2023/05/04 05:06:17;;;;;;;0.50;0.50;;;;;;;8.96;76.27;101873.06;4980203;28;20471;-65
2023/05/04 05:08:43;;;;;;;0.95;0.95;;;;;;;8.99;76.90;101869.75;4990061;28;20106;-65
2023/05/04 05:11:09;;;;;;;0.60;0.60;;;;;;;8.94;76.77;101861.81;5001229;28;20063;-64
2023/05/04 05:13:35;;;;;;;1.13;0.70;;;;;;;9.11;76.34;101858.41;5002469;28;20061;-65
2023/05/04 05:16:00;;;;;;;0.65;0.65;;;;;;;9.20;75.98;101867.25;4999766;28;20073;-62
2023/05/04 05:18:28;;;;;;;1.17;0.85;;;;;;;9.38;76.33;101859.97;4997393;28;20029;-62
2023/05/04 05:20:54;;;;;;;0.40;0.40;;;;;;;9.44;75.39;101859.53;5005150;28;20022;-65
2023/05/04 05:23:19;;;;;;;0.57;0.35;;;;;;;9.62;75.69;101866.44;4998841;28;20038;-64
2023/05/04 05:25:45;;;;;;;0.68;0.68;;;;;;;9.99;74.88;101867.66;5006159;28;20033;-63
2023/05/04 05:28:12;;;;;;;0.60;0.60;;;;;;;10.26;73.34;101866.53;5002141;28;20463;-65
2023/05/04 05:30:40;;;;;;;0.70;0.70;;;;;;;10.46;71.98;101865.78;5004203;28;20046;-62
2023/05/04 05:33:06;;;;;;;1.30;0.90;;;;;;;10.82;71.17;101874.94;4999208;28;20030;-65
2023/05/04 05:35:31;;;;;;;0.70;0.60;;;;;;;11.15;68.66;101874.28;5001650;28;20377;-65
2023/05/04 05:37:57;;;;;;;0.43;0.43;;;;;;;11.52;68.17;101871.44;4970918;28;20030;-65
2023/05/04 05:40:23;;;;;;;0.30;0.30;;;;;;;11.74;67.40;101879.22;4999590;28;20038;-63
2023/05/04 05:42:48;;;;;;;1.85;0.70;;;;;;;11.93;65.91;101877.91;4994461;28;20064;-65
2023/05/04 05:45:14;;;;;;;0.52;0.52;;;;;;;12.13;64.01;101883.25;4978892;28;20037;-62
2023/05/04 05:47:39;;;;;;;0.38;0.38;;;;;;;12.31;63.25;101881.91;4996550;28;20407;-60
2023/05/04 05:50:06;;;;;;;2.50;0.95;;;;;;;12.48;63.09;101886.34;5005074;28;20035;-66
2023/05/04 05:52:32;;;;;;;0.35;0.35;;;;;;;12.42;61.54;101883.09;5002860;28;20070;-64
2023/05/04 05:55:17;;;;;;;0.50;0.50;;;;;;;12.41;61.43;101886.91;4999108;28;20057;-65
2023/05/04 05:57:43;;;;;;;0.20;0.20;;;;;;;12.70;62.39;101883.97;4937139;28;20054;-63
2023/05/04 06:00:09;;;;;;;1.40;0.60;;;;;;;12.66;61.20;101866.84;4931690;29;20467;-63
2023/05/04 06:02:40;;;;;;;3.03;0.63;;;;;;;12.66;59.66;101869.56;4927762;29;20047;-62
2023/05/04 06:05:06;;;;;;;0.40;0.40;;;;;;;12.98;60.29;101872.47;4937655;28;20114;-65
2023/05/04 06:07:32;;;;;;;0.40;0.40;;;;;;;13.26;59.72;101873.31;4945062;29;20071;-65
2023/05/04 06:09:57;;;;;;;0.57;0.47;;;;;;;13.46;58.08;101872.38;4936699;28;20558;-63
2023/05/04 06:12:23;;;;;;;0.40;0.30;;;;;;;13.57;57.56;101868.84;4939469;28;20090;-63
2023/05/04 06:14:48;;;;;;;0.40;0.40;;;;;;;13.73;58.14;101876.22;4930473;28;20044;-65
2023/05/04 06:17:17;;;;;;;0.55;0.43;;;;;;;13.93;56.42;101876.00;4911268;29;20031;-65
2023/05/04 06:19:44;;;;;;;0.20;0.17;;;;;;;14.01;55.68;101877.78;4935233;28;20521;-63
2023/05/04 06:22:10;;;;;;;0.40;0.35;;;;;;;14.10;54.78;101874.88;4928983;29;20047;-65
2023/05/04 06:24:35;;;;;;;0.57;0.40;;;;;;;13.93;54.44;101869.81;4924112;29;20080;-62
2023/05/04 06:27:01;;;;;;;0.43;0.30;;;;;;;14.43;53.03;101869.94;4945618;28;20077;-65
2023/05/04 06:29:26;;;;;;;0.40;0.20;;;;;;;14.31;52.83;101859.19;4943031;28;20038;-66
2023/05/04 06:31:52;;;;;;;0.47;0.38;;;;;;;14.40;52.99;101867.97;4938836;28;20441;-65
2023/05/04 06:34:18;;;;;;;0.32;0.30;;;;;;;14.38;53.93;101868.28;4939726;28;20046;-62
2023/05/04 06:36:44;;;;;;;0.20;0.20;;;;;;;14.52;54.37;101865.13;4996462;28;20038;-61
2023/05/04 06:39:30;;;;;;;0.73;0.50;;;;;;;14.59;53.46;101867.22;4977499;28;20688;-61
2023/05/04 06:41:55;;;;;;;0.80;0.40;;;;;;;14.66;53.75;101868.19;4982079;28;20042;-64
2023/05/04 06:44:21;;;;;;;0.20;0.20;;;;;;;14.78;54.38;101875.41;4984273;28;20545;-65
2023/05/04 06:46:47;;;;;;;0.10;0.10;;;;;;;14.81;53.91;101872.00;4975964;28;20460;-63
2023/05/04 06:49:12;;;;;;;0.47;0.35;;;;;;;15.06;53.57;101859.78;4979555;28;20446;-62
2023/05/04 06:51:38;;;;;;;0.68;0.30;;;;;;;15.06;53.38;101860.56;4962392;28;20549;-64
2023/05/04 06:54:04;;;;;;;0.43;0.30;;;;;;;15.28;53.43;101859.88;4972571;28;20102;-63
2023/05/04 06:56:30;;;;;;;2.90;1.00;;;;;;;15.39;52.59;101868.22;4987643;22;20737;-55
2023/05/04 06:58:55;;;;;;;0.20;0.20;;;;;;;15.37;53.42;101863.16;4980339;28;20481;-56
2023/05/04 07:01:21;;;;;;;0.20;0.20;;;;;;;15.43;52.80;101874.56;4986384;28;20473;-57
2023/05/04 07:03:47;;;;;;;3.15;0.28;;;;;;;15.28;54.22;101864.50;4982056;28;20081;-61
2023/05/04 07:06:13;;;;;;;0.45;0.25;;;;;;;15.39;53.03;101849.22;4975423;28;20393;-61
2023/05/04 07:08:38;;;;;;;0.20;0.10;;;;;;;15.62;52.44;101854.75;4973864;28;20074;-59
2023/05/04 07:11:04;;;;;;;0.63;0.47;;;;;;;15.76;52.79;101853.09;4973836;28;20047;-59
2023/05/04 07:13:32;;;;;;;0.22;0.22;;;;;;;15.96;52.18;101856.56;4981051;28;20026;-59
2023/05/04 07:15:57;;;;;;;0.75;0.10;;;;;;;15.84;51.50;101852.06;4979126;28;20184;-60
2023/05/04 07:18:23;;;;;;;2.75;0.30;;;;;;;15.99;51.81;101855.81;4980780;28;20049;-58
2023/05/04 07:20:48;;;;;;;0.03;0.03;;;;;;;16.12;50.98;101858.00;4983428;28;20030;-60
2023/05/04 07:23:14;;;;;;;0.20;0.10;;;;;;;16.21;51.48;101847.69;4981437;28;20706;-59
2023/05/04 07:25:39;;;;;;;0.40;0.20;;;;;;;16.38;50.94;101848.31;4974598;28;20061;-58
2023/05/04 07:28:05;;;;;;;0.52;0.38;;;;;;;16.56;50.66;101852.94;4978303;28;20026;-55
2023/05/04 07:30:31;;;;;;;2.38;0.20;;;;;;;16.53;49.62;101837.34;4971337;28;20808;-56
2023/05/04 07:32:56;;;;;;;0.40;0.20;;;;;;;16.60;50.76;101842.91;4985936;28;20460;-60
2023/05/04 07:35:22;;;;;;;1.00;0.40;;;;;;;16.69;50.39;101839.91;4982387;28;20126;-56
2023/05/04 07:37:48;;;;;;;0.20;0.17;;;;;;;16.44;50.68;101836.00;4973029;28;20085;-57
2023/05/04 07:40:14;;;;;;;0.68;0.30;;;;;;;16.28;50.07;101836.13;4977522;28;20031;-57
2023/05/04 07:42:40;;;;;;;0.70;0.20;;;;;;;16.28;51.29;101834.22;4977921;28;20456;-54
2023/05/04 07:45:07;;;;;;;0.20;0.20;;;;;;;16.16;49.74;101826.22;4988899;28;20049;-52
2023/05/04 07:47:33;;;;;;;0.08;0.03;;;;;;;16.40;49.65;101827.78;4979104;28;20110;-59
2023/05/04 07:49:59;;;;;;;0.45;0.45;;;;;;;16.60;49.91;101815.69;4981125;28;20031;-60
2023/05/04 07:52:46;;;;;;;0.52;0.20;;;;;;;16.92;49.51;101825.09;4988274;28;20092;-54
2023/05/04 07:55:12;;;;;;;0.70;0.40;;;;;;;17.05;48.59;101825.66;4877036;29;20048;-54
2023/05/04 07:57:37;;;;;;;0.65;0.25;;;;;;;17.22;48.09;101827.00;4899554;29;20092;-56
2023/05/04 08:00:04;;;;;;;0.30;0.30;;;;;;;17.32;48.71;101835.31;4895832;29;20044;-54
2023/05/04 08:02:38;;;;;;;0.20;0.13;;;;;;;16.80;48.04;101819.09;4904087;29;20036;-53
2023/05/04 08:05:04;;;;;;;0.65;0.28;;;;;;;16.60;48.76;101820.34;4909081;29;20897;-58
2023/05/04 08:07:32;;;;;;;2.08;0.75;;;;;;;16.42;49.55;101820.06;4903128;29;20052;-52
2023/05/04 08:09:58;;;;;;;0.38;0.15;;;;;;;16.76;49.25;101821.75;4898504;29;20128;-58
2023/05/04 08:12:25;;;;;;;0.60;0.20;;;;;;;16.98;49.11;101820.09;4900757;29;20106;-54
2023/05/04 08:14:51;;;;;;;0.20;0.20;;;;;;;16.97;47.97;101816.63;4897864;29;20123;-61
2023/05/04 08:17:16;;;;;;;0.40;0.17;;;;;;;16.66;48.48;101816.16;4897708;29;20107;-55
2023/05/04 08:19:42;;;;;;;0.10;0.10;;;;;;;17.02;47.39;101812.75;4901319;29;20052;-60
2023/05/04 08:22:08;;;;;;;0.93;0.40;;;;;;;16.98;48.39;101812.72;4903117;29;20040;-60
2023/05/04 08:24:33;;;;;;;0.35;0.10;;;;;;;17.32;49.05;101812.75;4912431;29;20110;-58
2023/05/04 08:27:00;;;;;;;7.20;0.73;;;;;;;17.50;49.70;101808.31;4911195;29;20407;-53
2023/05/04 08:29:26;;;;;;;0.00;0.00;;;;;;;17.77;49.87;101807.81;4898100;29;20067;-61
2023/05/04 08:31:53;;;;;;;1.23;0.15;;;;;;;18.01;48.06;101799.09;4929350;28;20656;-54
2023/05/04 08:34:19;;;;;;;0.08;0.08;;;;;;;18.07;47.74;101804.19;4980059;28;20030;-54
2023/05/04 08:36:45;;;;;;;0.10;0.10;;;;;;;18.19;47.88;101803.91;4983171;28;20033;-61
2023/05/04 08:39:11;;;;;;;0.20;0.17;;;;;;;18.41;46.73;101805.59;4978945;28;20385;-54
2023/05/04 08:41:40;;;;;;;0.32;0.15;;;;;;;17.78;46.61;101805.88;4984284;28;20042;-57
2023/05/04 08:44:12;;;;;;;0.15;0.15;;;;;;;17.94;47.13;101798.25;4982822;28;20030;-57
2023/05/04 08:46:41;;;;;;;0.10;0.10;;;;;;;18.14;47.10;101796.84;4977400;28;20381;-60
2023/05/04 08:49:07;;;;;;;0.40;0.20;;;;;;;18.18;46.20;101794.13;4985414;28;20384;-60
2023/05/04 08:51:34;;;;;;;0.15;0.15;;;;;;;17.78;46.62;101790.31;4971602;28;20053;-57
2023/05/04 08:54:03;;;;;;;0.30;0.10;;;;;;;18.03;46.75;101782.34;4984015;28;20041;-60
2023/05/04 08:56:29;;;;;;;0.45;0.20;;;;;;;18.09;46.91;101786.28;4981615;28;20038;-56
2023/05/04 08:59:00;;;;;;;0.85;0.17;;;;;;;18.45;45.94;101781.88;4983684;28;20473;-57
2023/05/04 09:01:27;;;;;;;0.57;0.40;;;;;;;18.29;45.75;101773.19;4982873;28;20555;-60
2023/05/04 09:03:52;;;;;;;1.20;0.25;;;;;;;18.36;45.94;101782.22;4990446;28;20053;-58
2023/05/04 09:06:19;;;;;;;0.00;0.00;;;;;;;18.56;45.77;101769.88;4971502;28;20050;-60
2023/05/04 09:08:45;;;;;;;0.10;0.10;;;;;;;18.51;46.45;101774.91;4988824;28;20465;-60
2023/05/04 09:11:10;;;;;;;0.20;0.20;;;;;;;18.69;45.39;101770.34;4980459;28;20105;-57
2023/05/04 09:13:37;;;;;;;0.38;0.20;;;;;;;18.67;46.40;101778.13;4974848;28;20185;-61
2023/05/04 09:16:23;;;;;;;0.20;0.20;;;;;;;18.90;46.59;101775.91;4976369;28;20042;-58
2023/05/04 09:18:48;;;;;;;0.10;0.10;;;;;;;18.95;45.96;101772.03;4950455;28;20043;-57
2023/05/04 09:21:14;;;;;;;0.00;0.00;;;;;;;19.09;45.10;101770.13;4944364;28;20135;-57
2023/05/04 09:23:46;;;;;;;0.10;0.10;;;;;;;19.26;44.10;101772.13;4944953;28;20039;-58
2023/05/04 09:26:12;;;;;;;0.20;0.10;;;;;;;19.38;44.08;101760.88;4964243;28;20074;-53
2023/05/04 09:28:38;;;;;;;0.38;0.35;;;;;;;19.59;43.48;101773.78;4960593;28;20098;-55
2023/05/04 09:31:05;;;;;;;0.47;0.30;;;;;;;19.88;43.03;101758.22;4949378;28;20494;-57
2023/05/04 09:33:30;;;;;;;0.35;0.17;;;;;;;19.65;42.98;101764.84;4954373;28;20907;-53
2023/05/04 09:35:58;;;;;;;0.20;0.10;;;;;;;19.97;42.20;101751.19;4935626;28;20047;-55
2023/05/04 09:38:25;;;;;;;0.65;0.22;;;;;;;20.03;42.05;101754.31;4962594;28;20125;-59
2023/05/04 09:40:51;;;;;;;0.68;0.30;;;;;;;19.82;41.51;101752.38;4955757;28;20193;-60
2023/05/04 09:43:17;;;;;;;0.85;0.20;;;;;;;19.62;42.30;101749.22;4953438;28;20562;-53
2023/05/04 09:45:46;;;;;;;0.30;0.30;;;;;;;19.77;43.31;101758.19;4956721;28;20030;-59
2023/05/04 09:48:27;;;;;;;1.38;0.30;;;;;;;19.98;41.99;101752.72;4958975;28;20157;-56
2023/05/04 09:50:56;;;;;;;0.80;0.10;;;;;;;20.23;42.40;101748.03;4949892;28;20800;-54
2023/05/04 09:53:23;;;;;;;0.45;0.20;;;;;;;20.26;42.11;101735.53;4955987;28;20529;-56
2023/05/04 09:56:13;;;;;;;0.30;0.10;;;;;;;19.55;42.71;101735.53;4961678;28;20098;-60
2023/05/04 09:58:39;;;;;;;0.10;0.10;;;;;;;20.03;42.68;101738.69;4966975;28;20634;-56
2023/05/04 10:01:05;;;;;;;0.10;0.10;;;;;;;20.38;41.66;101737.88;4965312;28;20042;-63
2023/05/04 10:03:32;;;;;;;0.30;0.28;;;;;;;20.75;41.50;101740.09;4966278;28;20030;-60
2023/05/04 10:05:59;;;;;;;0.25;0.20;;;;;;;21.02;41.65;101738.44;4970023;28;20042;-55
2023/05/04 10:08:28;;;;;;;0.60;0.22;;;;;;;21.03;38.46;101737.25;4969035;28;20026;-56
2023/05/04 10:10:53;;;;;;;0.50;0.20;;;;;;;21.07;38.98;101740.75;4974065;28;20362;-59
2023/05/04 10:13:19;;;;;;;4.22;0.50;;;;;;;21.05;38.42;101740.38;4972476;28;20030;-60
2023/05/04 10:16:04;;;;;;;0.70;0.15;;;;;;;20.68;38.95;101727.22;4977261;28;20084;-59
2023/05/04 10:18:48;;;;;;;0.55;0.17;;;;;;;20.72;40.31;101722.50;4970722;28;20050;-59
2023/05/04 10:21:32;;;;;;;0.40;0.20;;;;;;;20.42;40.16;101728.47;4975787;28;20038;-57
2023/05/04 10:24:09;;;;;;;0.75;0.20;;;;;;;20.29;40.22;101724.59;4977039;28;20766;-54
2023/05/04 10:27:02;;;;;;;1.33;0.68;;;;;;;19.77;40.40;101723.44;4981985;28;20030;-56
2023/05/04 10:29:29;;;;;;;0.15;0.15;;;;;;;19.62;41.78;101715.63;4976867;28;20497;-55
2023/05/04 10:31:55;;;;;;;0.38;0.30;;;;;;;19.73;41.88;101713.66;4979372;28;20030;-61
2023/05/04 10:34:28;;;;;;;0.00;0.00;;;;;;;20.04;41.34;101707.41;4981146;28;20046;-61
2023/05/04 10:36:55;;;;;;;0.10;0.10;;;;;;;20.25;41.31;101707.38;4996308;28;20042;-60
2023/05/04 10:39:23;;;;;;;0.85;0.50;;;;;;;20.40;41.07;101706.16;4979210;28;20080;-53
2023/05/04 10:42:14;;;;;;;1.83;0.30;;;;;;;20.78;41.09;101700.97;4975499;28;20026;-56
2023/05/04 10:44:54;;;;;;;1.27;0.32;;;;;;;20.79;40.67;101700.56;4967782;28;20047;-58
2023/05/04 10:47:34;;;;;;;0.25;0.10;;;;;;;20.75;40.79;101699.03;4977196;28;20076;-58
2023/05/04 10:50:03;;;;;;;0.17;0.17;;;;;;;21.04;40.30;101690.28;4980754;28;20745;-55
2023/05/04 10:52:49;;;;;;;0.82;0.20;;;;;;;21.35;40.39;101689.28;4982572;28;20027;-56
2023/05/04 10:55:15;;;;;;;0.22;0.20;;;;;;;21.41;37.85;101686.91;4983147;28;20068;-55
2023/05/04 10:57:48;;;;;;;0.20;0.20;;;;;;;21.14;40.90;101681.22;4982828;28;20101;-54
2023/05/04 11:00:15;;;;;;;0.20;0.20;;;;;;;21.28;39.93;101678.38;4978077;28;20047;-61
2023/05/04 11:02:40;;;;;;;0.20;0.20;;;;;;;22.06;37.86;101673.03;4983133;28;20050;-58
2023/05/04 11:05:06;;;;;;;1.75;0.32;;;;;;;21.93;36.70;101676.72;4980311;28;20121;-55
2023/05/04 11:07:35;;;;;;;0.32;0.20;;;;;;;21.96;38.46;101676.66;4978608;28;20030;-54
2023/05/04 11:10:01;;;;;;;0.38;0.38;;;;;;;22.00;37.44;101662.91;4981991;28;20033;-58
2023/05/04 11:12:27;;;;;;;0.25;0.10;;;;;;;21.84;38.07;101654.44;4979066;28;20042;-60
2023/05/04 11:15:03;;;;;;;0.38;0.20;;;;;;;22.28;39.15;101657.88;4974771;28;20038;-59
2023/05/04 11:17:28;;;;;;;0.20;0.20;;;;;;;22.68;37.42;101660.97;4979376;28;20032;-56
2023/05/04 11:19:54;;;;;;;1.02;0.10;;;;;;;22.71;36.44;101660.91;4976180;28;20031;-60
2023/05/04 11:22:20;;;;;;;0.10;0.10;;;;;;;22.91;35.70;101655.53;4978020;28;20121;-61
2023/05/04 11:24:47;;;;;;;0.60;0.13;;;;;;;21.97;35.11;101645.28;4986091;28;20041;-55
2023/05/04 11:27:25;;;;;;;0.20;0.10;;;;;;;22.08;35.30;101637.75;4969483;28;20046;-57
2023/05/04 11:30:02;;;;;;;0.38;0.28;;;;;;;22.61;35.90;101641.84;4948631;28;20038;-59